Time;durP1;ratioP1;P1;durP2;ratioP2;P2;SDS_P1;SDS_P2;PMS_P1;PMS_P2;Temp;Humidity;BMP_temperature;BMP_pressure;BME280_temperature;BME280_humidity;BME280_pressure;Samples;Min_cycle;Max_cycle;Signal;HPM_P1;HPM_P2
2024/01/12 00:00:30;;;;;;;4.97;0.90;;;;;;;5.95;93.55;103482.09;5049521;28;20052;-46
2024/01/12 00:02:58;;;;;;;3.53;1.10;;;;;;;5.94;93.51;103491.41;5066984;28;20123;-47
2024/01/12 00:05:26;;;;;;;3.53;0.95;;;;;;;5.92;93.74;103491.66;5067103;28;20497;-50
2024/01/12 00:07:53;;;;;;;3.53;1.38;;;;;;;5.93;93.81;103487.00;5067408;28;20052;-49
2024/01/12 00:10:21;;;;;;;8.85;0.95;;;;;;;5.93;93.74;103478.75;5066889;28;20052;-49
2024/01/12 00:12:48;;;;;;;2.53;0.93;;;;;;;5.92;93.82;103477.91;5055124;28;20410;-46
2024/01/12 00:15:15;;;;;;;2.47;0.90;;;;;;;5.93;93.64;103467.75;5067514;28;20060;-48
2024/01/12 00:17:43;;;;;;;2.10;0.60;;;;;;;5.92;93.94;103477.06;5067619;28;20049;-50
2024/01/12 00:20:11;;;;;;;1.25;0.75;;;;;;;5.90;94.04;103477.34;5066418;28;20052;-48
2024/01/12 00:22:38;;;;;;;2.50;0.85;;;;;;;5.91;93.99;103472.66;5067238;28;20071;-46
2024/01/12 00:25:07;;;;;;;6.88;1.65;;;;;;;5.92;93.85;103468.81;5067674;28;20049;-46
2024/01/12 00:27:35;;;;;;;6.65;1.00;;;;;;;5.89;93.74;103467.41;5066957;28;20055;-47
2024/01/12 00:30:03;;;;;;;3.25;1.08;;;;;;;5.90;93.90;103471.00;5067527;28;20052;-47
2024/01/12 00:32:30;;;;;;;3.13;0.85;;;;;;;5.90;93.74;103476.50;5067380;28;20052;-45
2024/01/12 00:34:58;;;;;;;4.18;0.60;;;;;;;5.89;93.72;103472.06;5067395;28;20036;-49
2024/01/12 00:37:25;;;;;;;2.90;0.73;;;;;;;5.91;93.79;103469.91;5067188;28;20040;-47
2024/01/12 00:39:52;;;;;;;3.55;0.70;;;;;;;5.89;93.47;103466.56;5047018;28;20056;-47
2024/01/12 00:42:19;;;;;;;8.65;2.50;;;;;;;5.89;93.45;103470.16;5047708;28;20053;-52
2024/01/12 00:44:47;;;;;;;1.75;0.57;;;;;;;5.90;93.60;103469.09;5046733;28;20056;-46
2024/01/12 00:47:15;;;;;;;1.90;0.55;;;;;;;5.91;93.76;103472.66;5050753;28;20079;-48
2024/01/12 00:49:43;;;;;;;0.85;0.50;;;;;;;5.91;93.74;103458.91;5051240;28;20041;-46
2024/01/12 00:52:10;;;;;;;2.78;0.80;;;;;;;5.92;93.65;103461.41;5049082;28;20045;-48
2024/01/12 00:54:38;;;;;;;2.40;0.75;;;;;;;5.92;93.46;103460.59;5051476;28;20056;-50
2024/01/12 00:57:05;;;;;;;2.28;0.93;;;;;;;5.90;93.50;103457.25;5051570;28;20790;-47
2024/01/12 00:59:33;;;;;;;9.30;0.95;;;;;;;5.89;93.51;103450.06;5050504;28;20045;-46
2024/01/12 01:02:00;;;;;;;2.35;1.00;;;;;;;5.89;93.70;103452.81;5050793;28;20049;-47
2024/01/12 01:04:28;;;;;;;1.83;0.55;;;;;;;5.88;93.46;103448.41;5051007;28;20548;-47
2024/01/12 01:06:55;;;;;;;3.03;0.95;;;;;;;5.88;93.60;103448.41;5039790;28;20431;-47
2024/01/12 01:09:24;;;;;;;1.42;0.77;;;;;;;5.87;93.64;103444.00;5049547;28;20057;-45
2024/01/12 01:11:52;;;;;;;3.28;0.90;;;;;;;5.86;93.42;103445.91;5048856;28;20506;-51
2024/01/12 01:14:24;;;;;;;5.13;0.93;;;;;;;5.85;93.39;103448.91;5049393;28;20048;-50
2024/01/12 01:16:53;;;;;;;4.18;1.13;;;;;;;5.86;93.46;103434.06;5050890;28;20041;-49
2024/01/12 01:19:20;;;;;;;4.28;0.70;;;;;;;5.85;93.36;103448.91;5050793;28;20049;-46
2024/01/12 01:21:48;;;;;;;3.30;0.70;;;;;;;5.84;93.60;103448.03;5050982;28;20040;-47
2024/01/12 01:24:15;;;;;;;6.05;0.75;;;;;;;5.84;93.39;103444.44;5050411;28;20048;-46
2024/01/12 01:26:45;;;;;;;1.08;0.70;;;;;;;5.83;93.55;103440.03;5050249;28;20076;-47
2024/01/12 01:29:12;;;;;;;2.20;0.52;;;;;;;5.83;93.59;103445.53;5050604;28;20068;-46
2024/01/12 01:31:39;;;;;;;3.05;0.60;;;;;;;5.84;93.68;103438.97;5051171;28;20053;-46
2024/01/12 01:34:08;;;;;;;3.47;0.93;;;;;;;5.83;93.45;103442.78;5050955;28;20051;-46
2024/01/12 01:36:36;;;;;;;2.92;1.05;;;;;;;5.82;93.54;103439.22;5050108;28;20045;-45
2024/01/12 01:39:03;;;;;;;1.98;1.05;;;;;;;5.81;93.40;103428.44;5063329;28;20064;-46
2024/01/12 01:41:31;;;;;;;5.18;0.95;;;;;;;5.82;93.63;103430.13;5067421;28;20143;-46
2024/01/12 01:43:58;;;;;;;6.68;1.27;;;;;;;5.81;93.52;103431.19;5038170;28;20033;-46
2024/01/12 01:46:26;;;;;;;7.07;1.27;;;;;;;5.80;93.46;103432.31;5065861;28;20056;-46
2024/01/12 01:48:54;;;;;;;4.43;0.88;;;;;;;5.78;93.35;103418.78;5069661;28;20041;-45
2024/01/12 01:51:22;;;;;;;5.97;1.02;;;;;;;5.77;93.28;103419.06;5066029;28;20545;-48
2024/01/12 01:53:51;;;;;;;0.70;0.68;;;;;;;5.78;93.31;103420.69;5061013;28;20052;-47
2024/01/12 01:56:19;;;;;;;6.45;0.90;;;;;;;5.78;93.04;103417.94;5069830;28;20514;-48
2024/01/12 01:58:47;;;;;;;6.47;1.20;;;;;;;5.78;92.98;103420.69;5069098;28;20532;-46
2024/01/12 02:01:16;;;;;;;3.00;1.10;;;;;;;5.78;93.16;103417.94;5069534;28;20040;-45
2024/01/12 02:03:46;;;;;;;2.13;0.73;;;;;;;5.76;92.67;103420.13;5069677;28;20044;-46
2024/01/12 02:06:32;;;;;;;2.65;0.88;;;;;;;5.75;92.88;103415.69;5069969;28;20040;-50
2024/01/12 02:09:17;;;;;;;5.18;1.02;;;;;;;5.75;92.79;103410.19;5054622;28;20040;-46
2024/01/12 02:11:45;;;;;;;4.22;1.27;;;;;;;5.75;92.77;103410.19;5052096;28;20040;-48
2024/01/12 02:14:13;;;;;;;5.45;1.10;;;;;;;5.76;92.98;103406.38;5069380;28;20063;-46
2024/01/12 02:16:41;;;;;;;1.70;1.10;;;;;;;5.77;92.60;103402.56;5069336;28;20048;-45
2024/01/12 02:19:08;;;;;;;1.52;0.70;;;;;;;5.77;93.02;103408.06;5069577;28;20041;-47
2024/01/12 02:21:36;;;;;;;2.85;0.82;;;;;;;5.75;92.65;103402.78;5069229;28;20056;-46
2024/01/12 02:24:03;;;;;;;2.75;1.10;;;;;;;5.77;92.94;103408.06;5055715;28;20052;-50
2024/01/12 02:26:31;;;;;;;5.78;1.00;;;;;;;5.79;92.96;103408.63;5069772;28;20044;-47
2024/01/12 02:29:00;;;;;;;4.40;0.80;;;;;;;5.77;92.88;103397.06;5051748;28;20802;-46
2024/01/12 02:31:29;;;;;;;4.65;0.80;;;;;;;5.76;92.77;103401.72;5068921;28;20765;-51
2024/01/12 02:33:56;;;;;;;3.45;1.10;;;;;;;5.74;92.83;103398.38;5069407;28;20052;-47
2024/01/12 02:36:27;;;;;;;6.47;1.10;;;;;;;5.76;92.65;103400.88;5068819;28;20443;-48
2024/01/12 02:38:55;;;;;;;4.18;1.13;;;;;;;5.75;92.59;103400.03;5069075;28;20520;-48
2024/01/12 02:41:23;;;;;;;3.85;0.90;;;;;;;5.76;92.89;103389.88;5069023;28;20052;-47
2024/01/12 02:43:51;;;;;;;2.10;0.80;;;;;;;5.77;92.84;103391.56;5068666;28;20083;-48
2024/01/12 02:46:19;;;;;;;5.07;0.93;;;;;;;5.77;92.86;103386.88;5068567;28;20052;-50
2024/01/12 02:48:47;;;;;;;3.85;0.80;;;;;;;5.78;92.88;103382.22;5069060;28;20067;-48
2024/01/12 02:51:14;;;;;;;3.92;0.88;;;;;;;5.79;92.72;103387.47;5050667;28;20396;-45
2024/01/12 02:53:41;;;;;;;3.72;1.13;;;;;;;5.78;92.88;103376.72;5068995;28;20537;-45
2024/01/12 02:56:10;;;;;;;6.22;0.70;;;;;;;5.77;92.72;103383.31;5055220;28;20040;-49
2024/01/12 02:58:37;;;;;;;7.85;1.83;;;;;;;5.76;92.61;103384.38;5067921;28;20063;-45
2024/01/12 03:01:04;;;;;;;3.20;0.90;;;;;;;5.76;92.76;103378.88;5142043;22;20040;-46
2024/01/12 03:03:32;;;;;;;1.08;0.68;;;;;;;5.76;92.66;103378.88;5048804;28;20056;-46
2024/01/12 03:06:02;;;;;;;4.63;2.95;;;;;;;5.75;92.92;103378.06;5048831;28;20807;-46
2024/01/12 03:08:30;;;;;;;5.50;1.35;;;;;;;5.77;92.95;103375.06;5048037;28;20160;-45
2024/01/12 03:10:57;;;;;;;2.72;0.80;;;;;;;5.78;92.81;103382.22;5048758;28;20045;-46
2024/01/12 03:13:24;;;;;;;3.45;0.90;;;;;;;5.77;92.86;103364.06;5048719;28;20052;-46
2024/01/12 03:15:51;;;;;;;3.58;1.10;;;;;;;5.77;92.89;103364.88;5048516;28;20048;-48
2024/01/12 03:18:19;;;;;;;2.42;0.63;;;;;;;5.78;92.76;103368.47;5048604;28;20406;-46
2024/01/12 03:20:47;;;;;;;3.88;1.85;;;;;;;5.77;92.88;103359.38;5048290;28;20706;-45
2024/01/12 03:23:14;;;;;;;1.15;0.90;;;;;;;5.80;93.00;103363.59;5048137;28;20057;-47
2024/01/12 03:25:41;;;;;;;4.40;1.00;;;;;;;5.80;92.75;103363.59;5041915;28;20379;-45
2024/01/12 03:28:09;;;;;;;2.55;1.20;;;;;;;5.81;92.86;103370.72;5042604;28;20079;-47
2024/01/12 03:31:23;;;;;;;2.88;1.27;;;;;;;5.81;92.78;103367.97;5048457;28;20049;-47
2024/01/12 03:34:08;;;;;;;3.05;1.67;;;;;;;5.74;92.75;103359.91;5029136;28;20510;-52
2024/01/12 03:36:39;;;;;;;4.28;1.08;;;;;;;5.74;92.70;103364.56;5044648;28;20051;-45
2024/01/12 03:39:06;;;;;;;2.10;1.15;;;;;;;5.74;93.03;103356.31;5048540;28;20515;-46
2024/01/12 03:41:33;;;;;;;6.45;1.13;;;;;;;5.74;93.07;103362.66;5047989;28;20049;-46
2024/01/12 03:44:01;;;;;;;1.38;0.75;;;;;;;5.72;92.88;103366.75;5047879;28;20048;-46
2024/01/12 03:46:28;;;;;;;2.85;1.10;;;;;;;5.74;93.10;103359.06;5047391;28;20131;-47
2024/01/12 03:48:56;;;;;;;1.35;0.82;;;;;;;5.73;92.92;103354.63;5048278;28;20048;-46
2024/01/12 03:51:23;;;;;;;2.67;0.90;;;;;;;5.73;92.79;103355.47;5047915;28;20052;-45
2024/01/12 03:57:32;;;;;;;3.20;1.08;;;;;;;5.73;93.08;103354.63;5042596;28;20049;-46
2024/01/12 04:00:16;;;;;;;3.58;0.70;;;;;;;5.70;93.11;103357.88;5033260;28;20045;-47
2024/01/12 04:03:02;;;;;;;3.35;0.80;;;;;;;5.69;93.19;103350.75;5047437;28;20907;-46
2024/01/12 04:05:30;;;;;;;0.90;0.73;;;;;;;5.69;93.24;103343.34;5047463;28;20063;-53
2024/01/12 04:07:57;;;;;;;1.25;0.80;;;;;;;5.69;93.29;103343.34;5047818;28;20076;-45
2024/01/12 04:10:25;;;;;;;4.15;1.00;;;;;;;5.68;93.42;103338.06;5047352;28;20045;-46
2024/01/12 04:12:52;;;;;;;6.50;1.10;;;;;;;5.69;93.23;103339.75;5040453;28;20081;-46
2024/01/12 04:15:19;;;;;;;3.50;1.05;;;;;;;5.70;93.27;103330.41;5041785;28;20045;-45
2024/01/12 04:17:47;;;;;;;1.42;0.80;;;;;;;5.70;93.44;103341.41;5047319;28;20037;-45
2024/01/12 04:20:14;;;;;;;2.30;0.82;;;;;;;5.72;93.31;103337.31;5047244;28;20044;-46
2024/01/12 04:22:42;;;;;;;6.55;1.02;;;;;;;5.71;93.35;103337.56;5047578;28;20049;-46
2024/01/12 04:25:09;;;;;;;1.33;0.88;;;;;;;5.70;93.43;103331.25;5047394;28;20049;-46
2024/01/12 04:27:36;;;;;;;3.53;1.00;;;;;;;5.72;93.47;103325.50;5047138;28;20410;-45
2024/01/12 04:30:04;;;;;;;1.63;0.98;;;;;;;5.70;93.22;103331.25;5047603;28;20521;-47
2024/01/12 04:32:32;;;;;;;4.18;1.10;;;;;;;5.68;93.27;103332.56;5047246;28;20046;-46
2024/01/12 04:34:59;;;;;;;3.63;0.98;;;;;;;5.67;93.32;103323.50;5047594;28;20733;-47
2024/01/12 04:37:27;;;;;;;6.70;0.90;;;;;;;5.68;93.37;103332.56;5047329;28;20060;-45
2024/01/12 04:39:54;;;;;;;2.53;0.88;;;;;;;5.68;93.12;103327.91;5029125;28;20052;-48
2024/01/12 04:42:21;;;;;;;3.45;1.05;;;;;;;5.66;93.06;103334.75;5046997;28;20041;-46
2024/01/12 04:44:49;;;;;;;2.47;1.17;;;;;;;5.65;93.34;103327.56;5047253;28;20764;-45
2024/01/12 04:47:16;;;;;;;3.00;0.93;;;;;;;5.65;93.15;103333.06;5047247;28;20045;-45
2024/01/12 04:49:44;;;;;;;2.38;0.88;;;;;;;5.62;93.05;103317.91;5047542;28;20060;-47
2024/01/12 04:52:11;;;;;;;2.28;0.93;;;;;;;5.62;93.17;103333.56;5047002;28;20045;-51
2024/01/12 04:54:39;;;;;;;3.47;1.20;;;;;;;5.61;93.22;103331.91;5047491;28;20041;-48
2024/01/12 04:57:06;;;;;;;0.98;0.57;;;;;;;5.59;93.07;103328.59;5046767;28;20044;-46
2024/01/12 04:59:35;;;;;;;5.75;0.85;;;;;;;5.58;93.10;103327.75;5029868;28;20045;-45
2024/01/12 05:02:02;;;;;;;2.53;1.00;;;;;;;5.54;92.65;103326.56;5047157;28;20410;-45
2024/01/12 05:04:29;;;;;;;4.43;0.90;;;;;;;5.53;92.97;103325.72;5046890;28;20045;-45
2024/01/12 05:06:57;;;;;;;1.90;0.50;;;;;;;5.53;92.78;103325.72;5029584;28;20041;-46
2024/01/12 05:09:25;;;;;;;4.90;0.60;;;;;;;5.56;93.08;103318.09;5047069;28;20064;-45
2024/01/12 05:11:53;;;;;;;6.38;0.60;;;;;;;5.57;92.88;103314.25;5047721;28;20489;-45
2024/01/12 05:14:20;;;;;;;1.65;0.68;;;;;;;5.56;92.93;103304.34;5046698;28;20037;-46
2024/01/12 05:16:48;;;;;;;1.65;0.57;;;;;;;5.56;92.79;103301.59;5047047;28;20041;-46
2024/01/12 05:19:17;;;;;;;0.75;0.55;;;;;;;5.53;92.91;103308.44;5047071;28;20057;-46
2024/01/12 05:21:44;;;;;;;1.85;0.70;;;;;;;5.51;92.93;103297.69;5046992;28;20417;-54
2024/01/12 05:24:12;;;;;;;0.90;0.80;;;;;;;5.49;92.80;103299.84;5046979;28;20048;-46
2024/01/12 05:26:39;;;;;;;1.45;0.85;;;;;;;5.48;92.93;103300.91;5046573;28;20059;-45
2024/01/12 05:29:08;;;;;;;2.63;0.65;;;;;;;5.50;93.23;103298.78;5046971;28;20057;-46
2024/01/12 05:31:36;;;;;;;2.42;0.98;;;;;;;5.49;92.96;103286.09;5047475;28;20130;-47
2024/01/12 05:34:03;;;;;;;7.07;0.95;;;;;;;5.51;93.20;103283.94;5050580;28;20052;-46
2024/01/12 05:36:31;;;;;;;0.70;0.60;;;;;;;5.50;93.17;103282.28;5050616;28;20673;-46
2024/01/12 05:38:58;;;;;;;4.50;0.90;;;;;;;5.49;92.99;103280.63;5050619;28;20072;-48
2024/01/12 05:41:25;;;;;;;1.20;0.77;;;;;;;5.49;93.27;103283.38;5049865;28;20449;-46
2024/01/12 05:43:53;;;;;;;2.22;0.60;;;;;;;5.49;93.05;103274.28;5050291;28;20057;-46
2024/01/12 05:46:20;;;;;;;2.05;0.73;;;;;;;5.48;92.94;103287.19;5050384;28;20072;-49
2024/01/12 05:48:48;;;;;;;2.83;0.82;;;;;;;5.48;93.09;103287.19;5050450;28;20055;-45
2024/01/12 05:51:17;;;;;;;3.80;0.73;;;;;;;5.47;93.18;103277.28;5036720;28;20147;-47
2024/01/12 05:53:44;;;;;;;0.75;0.50;;;;;;;5.45;93.39;103279.44;5050236;28;20048;-47
2024/01/12 05:56:13;;;;;;;1.67;1.00;;;;;;;5.42;93.26;103274.47;5048853;28;20507;-46
2024/01/12 05:58:41;;;;;;;4.30;0.70;;;;;;;5.43;93.02;103289.84;5050410;28;20052;-45
2024/01/12 06:01:08;;;;;;;5.88;0.88;;;;;;;5.44;92.99;103283.28;5049680;28;20080;-45
2024/01/12 06:03:37;;;;;;;1.65;0.60;;;;;;;5.43;93.44;103287.09;5049575;28;20052;-45
2024/01/12 06:06:05;;;;;;;2.95;0.45;;;;;;;5.43;93.26;103287.09;5049792;28;20537;-46
2024/01/12 06:08:32;;;;;;;2.58;1.23;;;;;;;5.45;93.40;103287.66;5050053;28;20057;-49
2024/01/12 06:11:00;;;;;;;2.45;0.90;;;;;;;5.43;93.16;103276.09;5036208;28;20048;-45
2024/01/12 06:13:27;;;;;;;5.97;0.80;;;;;;;5.44;93.35;103286.03;5049618;28;20418;-46
2024/01/12 06:15:55;;;;;;;2.53;0.75;;;;;;;5.45;93.47;103284.13;5036415;28;20045;-45
2024/01/12 06:18:24;;;;;;;2.03;0.68;;;;;;;5.44;93.32;103283.28;5049211;28;20045;-45
2024/01/12 06:20:52;;;;;;;2.80;1.10;;;;;;;5.44;93.33;103280.53;5049845;28;20060;-46
2024/01/12 06:23:19;;;;;;;4.20;0.95;;;;;;;5.45;93.64;103284.13;5036899;28;20056;-45
2024/01/12 06:25:46;;;;;;;3.35;1.15;;;;;;;5.46;93.61;103289.34;5048616;28;20041;-48
2024/01/12 06:28:14;;;;;;;3.88;0.82;;;;;;;5.46;93.62;103285.75;5049214;28;20048;-46
2024/01/12 06:30:41;;;;;;;4.63;0.73;;;;;;;5.45;93.47;103289.59;5049684;28;20045;-46
2024/01/12 06:33:08;;;;;;;3.75;1.00;;;;;;;5.44;93.72;103276.94;5049533;28;20045;-45
2024/01/12 06:35:36;;;;;;;6.43;1.50;;;;;;;5.43;93.51;103281.59;5049896;28;20053;-46
2024/01/12 06:38:03;;;;;;;2.20;0.80;;;;;;;5.42;93.75;103284.63;5048864;28;20052;-45
2024/01/12 06:40:31;;;;;;;2.15;0.77;;;;;;;5.41;93.58;103285.69;5048993;28;20053;-46
2024/01/12 06:42:59;;;;;;;4.45;0.70;;;;;;;5.40;93.91;103287.59;5047938;28;20417;-48
2024/01/12 06:45:26;;;;;;;3.08;0.70;;;;;;;5.39;93.75;103285.94;5044566;28;20061;-55
2024/01/12 06:47:53;;;;;;;2.25;0.60;;;;;;;5.37;93.88;103282.63;5036407;28;20037;-46
2024/01/12 06:50:21;;;;;;;2.10;0.70;;;;;;;5.37;93.84;103270.78;5048956;28;20049;-45
2024/01/12 06:52:48;;;;;;;1.42;0.68;;;;;;;5.38;93.80;103280.69;5048671;28;20072;-47
2024/01/12 06:55:15;;;;;;;1.65;0.85;;;;;;;5.37;93.76;103282.63;5049025;28;20069;-45
2024/01/12 06:57:44;;;;;;;2.75;0.80;;;;;;;5.38;93.88;103283.44;5048877;28;20060;-45
2024/01/12 07:00:12;;;;;;;2.58;0.98;;;;;;;5.38;94.10;103273.28;5048887;28;20071;-46
2024/01/12 07:02:39;;;;;;;0.98;0.60;;;;;;;5.40;94.20;103282.09;5048500;28;20069;-46
2024/01/12 07:05:07;;;;;;;2.22;0.73;;;;;;;5.43;94.21;103278.84;5049326;28;20052;-45
2024/01/12 07:07:35;;;;;;;4.55;1.00;;;;;;;5.44;94.01;103280.53;5048490;28;20052;-45
2024/01/12 07:10:02;;;;;;;1.02;0.60;;;;;;;5.46;94.33;103275.63;5048434;28;20410;-46
2024/01/12 07:12:30;;;;;;;4.70;0.70;;;;;;;5.47;94.32;103277.28;5048339;28;20520;-46
2024/01/12 07:14:57;;;;;;;1.27;0.75;;;;;;;5.47;93.93;103277.28;5031290;28;20056;-46
2024/01/12 07:17:24;;;;;;;1.00;0.70;;;;;;;5.46;94.29;103275.63;5048245;28;20045;-45
2024/01/12 07:19:52;;;;;;;7.75;2.35;;;;;;;5.46;94.50;103278.34;5047893;28;20060;-46
2024/01/12 07:22:19;;;;;;;5.30;2.20;;;;;;;5.45;94.64;103279.44;5048387;28;20053;-46
2024/01/12 07:24:47;;;;;;;6.45;1.33;;;;;;;5.47;94.61;103266.31;5048559;28;20041;-45
2024/01/12 07:27:16;;;;;;;4.10;1.50;;;;;;;5.47;94.41;103270.97;5048822;28;20053;-45
2024/01/12 07:29:44;;;;;;;6.95;2.65;;;;;;;5.48;94.50;103272.63;5035617;28;20064;-47
2024/01/12 07:32:11;;;;;;;3.90;2.03;;;;;;;5.46;94.43;103270.13;5051344;28;20052;-51
2024/01/12 07:34:38;;;;;;;10.65;1.83;;;;;;;5.47;94.63;103259.97;5052759;28;20052;-46
2024/01/12 07:37:07;;;;;;;5.40;2.22;;;;;;;5.47;94.75;103270.97;5048312;28;20053;-46
2024/01/12 07:39:35;;;;;;;4.90;2.42;;;;;;;5.47;94.68;103262.72;5034550;28;20045;-46
2024/01/12 07:42:03;;;;;;;2.30;1.75;;;;;;;5.46;94.77;103253.63;5047086;28;20044;-50
2024/01/12 07:44:30;;;;;;;4.03;1.70;;;;;;;5.46;94.83;103264.63;5047235;28;20434;-46
2024/01/12 07:46:58;;;;;;;3.63;1.77;;;;;;;5.44;94.84;103264.03;5047656;28;20056;-45
2024/01/12 07:49:25;;;;;;;5.07;1.13;;;;;;;5.44;95.11;103261.31;5054158;28;20093;-45
2024/01/12 07:51:52;;;;;;;2.03;1.27;;;;;;;5.40;95.07;103264.81;5047897;28;20041;-46
2024/01/12 07:54:20;;;;;;;5.15;1.60;;;;;;;5.38;95.04;103265.03;5048019;28;20382;-48
2024/01/12 07:56:47;;;;;;;3.92;1.23;;;;;;;5.39;95.00;103266.72;5047677;28;20166;-45
2024/01/12 07:59:15;;;;;;;2.75;1.50;;;;;;;5.40;94.93;103265.63;5046634;28;20811;-45
2024/01/12 08:01:43;;;;;;;3.33;1.50;;;;;;;5.42;94.91;103265.38;5054053;28;20079;-50
2024/01/12 08:04:10;;;;;;;8.95;2.13;;;;;;;5.41;94.79;103270.03;5057887;28;20743;-47
2024/01/12 08:06:37;;;;;;;3.53;1.55;;;;;;;5.41;95.02;103260.97;5047921;28;20049;-47
2024/01/12 08:09:05;;;;;;;1.88;1.40;;;;;;;5.41;95.16;103260.97;5044145;28;20048;-50
2024/01/12 08:11:32;;;;;;;6.80;1.60;;;;;;;5.42;95.10;103262.63;5047054;28;20049;-46
2024/01/12 08:14:07;;;;;;;2.00;1.38;;;;;;;5.42;95.16;103257.13;5030644;28;20060;-45
2024/01/12 08:16:34;;;;;;;1.25;0.95;;;;;;;5.41;95.20;103261.78;5027561;28;20137;-53
2024/01/12 08:19:02;;;;;;;7.18;1.60;;;;;;;5.43;95.25;103254.13;5047844;28;20040;-47
2024/01/12 08:21:30;;;;;;;2.28;1.55;;;;;;;5.41;95.07;103256.31;5055007;28;20041;-51
2024/01/12 08:24:15;;;;;;;2.45;1.45;;;;;;;5.40;95.25;103259.31;5047350;28;20052;-46
2024/01/12 08:26:46;;;;;;;2.30;1.15;;;;;;;5.39;95.00;103269.47;5047979;28;20392;-46
2024/01/12 08:29:14;;;;;;;2.03;1.30;;;;;;;5.41;94.96;103267.28;5047134;28;20403;-45
2024/01/12 08:31:42;;;;;;;5.45;1.83;;;;;;;5.40;95.08;103276.59;5046729;28;20422;-45
2024/01/12 08:34:09;;;;;;;3.75;1.85;;;;;;;5.41;95.03;103256.31;5030089;28;20063;-45
2024/01/12 08:36:37;;;;;;;7.78;2.00;;;;;;;5.40;95.11;103254.63;5046656;28;20061;-52
2024/01/12 08:39:06;;;;;;;3.55;1.52;;;;;;;5.40;95.12;103254.63;5047821;28;20073;-47
2024/01/12 08:41:34;;;;;;;3.80;1.60;;;;;;;5.37;95.09;103263.38;5047166;28;20098;-48
2024/01/12 08:44:01;;;;;;;3.25;2.10;;;;;;;5.36;95.29;103256.22;5047182;28;20100;-49
2024/01/12 08:46:29;;;;;;;3.45;2.33;;;;;;;5.33;95.08;103255.88;5047032;28;20045;-51
2024/01/12 08:48:58;;;;;;;5.55;3.33;;;;;;;5.30;95.26;103251.72;5046975;28;20060;-47
2024/01/12 08:51:26;;;;;;;3.53;2.78;;;;;;;5.29;95.20;103268.44;5047226;28;20048;-46
2024/01/12 08:53:53;;;;;;;3.85;3.05;;;;;;;5.24;95.47;103260.94;5046171;28;20052;-47
2024/01/12 08:56:21;;;;;;;5.95;3.50;;;;;;;5.20;95.27;103269.94;5046715;28;20631;-48
2024/01/12 08:58:48;;;;;;;4.90;3.80;;;;;;;5.14;95.33;103265.41;5046213;28;20072;-48
2024/01/12 09:01:16;;;;;;;5.70;3.72;;;;;;;5.08;95.46;103258.19;5053205;28;20800;-48
2024/01/12 09:03:43;;;;;;;6.00;3.38;;;;;;;5.04;95.49;103266.06;5017335;28;20061;-52
2024/01/12 09:06:12;;;;;;;4.25;3.85;;;;;;;5.02;95.38;103262.75;5052464;28;20049;-49
2024/01/12 09:08:39;;;;;;;4.35;3.60;;;;;;;5.00;95.49;103264.91;5053009;28;20398;-50
2024/01/12 09:11:07;;;;;;;5.32;3.85;;;;;;;5.01;95.37;103255.59;5056378;28;20047;-48
2024/01/12 09:13:35;;;;;;;5.30;4.30;;;;;;;5.00;95.54;103264.91;5057483;28;20049;-47
2024/01/12 09:16:07;;;;;;;4.80;4.38;;;;;;;4.98;95.28;103252.53;5041386;28;20102;-51
2024/01/12 09:18:35;;;;;;;7.60;4.93;;;;;;;4.96;95.25;103263.72;5055028;28;20052;-52
2024/01/12 09:21:03;;;;;;;4.82;4.13;;;;;;;4.95;95.42;103251.06;5057256;28;20037;-52
2024/01/12 09:23:30;;;;;;;8.35;5.25;;;;;;;4.95;95.52;103255.75;5055699;28;20180;-51
2024/01/12 09:25:59;;;;;;;6.57;5.70;;;;;;;4.92;95.53;103257.09;5051091;28;20480;-53
2024/01/12 09:28:26;;;;;;;8.63;5.82;;;;;;;4.91;95.57;103250.75;5054110;28;20045;-51
2024/01/12 09:30:53;;;;;;;7.30;6.03;;;;;;;4.88;95.42;103245.75;5066721;28;20055;-48
2024/01/12 09:33:22;;;;;;;11.32;6.03;;;;;;;4.88;95.17;103247.66;5060580;28;20053;-51
2024/01/12 09:35:49;;;;;;;8.68;5.80;;;;;;;4.88;95.43;103250.41;5057242;28;20076;-51
2024/01/12 09:38:17;;;;;;;8.70;7.13;;;;;;;4.86;95.40;103247.91;5052622;28;20052;-50
2024/01/12 09:40:45;;;;;;;12.30;7.47;;;;;;;4.86;95.37;103252.56;5055949;28;20707;-53
2024/01/12 09:43:14;;;;;;;12.05;6.57;;;;;;;4.87;95.16;103248.75;5056273;28;20545;-49
2024/01/12 09:45:44;;;;;;;9.15;7.00;;;;;;;4.89;95.08;103252.09;5052592;28;20406;-49
2024/01/12 09:48:12;;;;;;;10.10;7.07;;;;;;;4.86;94.97;103255.31;5051889;28;20060;-53
2024/01/12 09:50:41;;;;;;;9.85;7.40;;;;;;;4.82;94.98;103243.16;5046331;28;20052;-48
2024/01/12 09:53:08;;;;;;;14.05;8.05;;;;;;;4.82;95.28;103245.88;5045297;28;20148;-47
2024/01/12 09:55:35;;;;;;;10.98;7.55;;;;;;;4.85;95.38;103246.25;5049291;28;20052;-49
2024/01/12 09:58:04;;;;;;;13.40;8.77;;;;;;;4.87;94.92;103251.50;5045937;28;20037;-49
2024/01/12 10:00:35;;;;;;;12.90;8.77;;;;;;;4.82;94.86;103241.25;5059920;28;20044;-47
2024/01/12 10:03:05;;;;;;;15.10;9.35;;;;;;;4.79;94.78;103235.44;5053437;28;20419;-50
2024/01/12 10:05:37;;;;;;;15.80;10.30;;;;;;;4.76;94.65;103228.53;5051962;28;20045;-51
2024/01/12 10:08:07;;;;;;;14.18;10.32;;;;;;;4.76;94.63;103228.53;5048933;28;20083;-51
2024/01/12 10:10:34;;;;;;;14.15;10.32;;;;;;;4.76;94.59;103230.44;5047973;28;20049;-52
2024/01/12 10:13:02;;;;;;;14.88;10.00;;;;;;;4.76;94.63;103225.78;5047502;28;20045;-51
2024/01/12 10:15:30;;;;;;;14.57;10.23;;;;;;;4.79;94.66;103235.44;5050309;28;20682;-53
2024/01/12 10:17:57;;;;;;;17.92;12.07;;;;;;;4.83;95.09;103223.72;5040701;28;20053;-48
2024/01/12 10:20:25;;;;;;;18.88;11.23;;;;;;;4.84;94.55;103238.28;5052674;28;20044;-46
2024/01/12 10:22:57;;;;;;;16.40;11.63;;;;;;;4.82;94.46;103234.91;5050159;28;20052;-49
2024/01/12 10:25:24;;;;;;;20.10;12.73;;;;;;;4.83;94.38;103231.94;5049540;28;20750;-49
2024/01/12 10:27:56;;;;;;;20.45;13.10;;;;;;;4.82;94.36;103229.44;5059089;28;20406;-52
2024/01/12 10:30:24;;;;;;;18.23;11.82;;;;;;;4.86;94.35;103236.09;5057590;28;20060;-50
2024/01/12 10:32:53;;;;;;;20.02;12.43;;;;;;;4.88;94.68;103232.03;5044696;28;20064;-50
2024/01/12 10:35:20;;;;;;;20.60;13.40;;;;;;;4.87;94.48;103233.09;5049098;28;20045;-50
2024/01/12 10:37:49;;;;;;;21.25;14.27;;;;;;;4.84;94.29;103233.59;5049800;28;20060;-50
2024/01/12 10:40:17;;;;;;;20.35;13.07;;;;;;;4.83;94.13;103231.09;5048577;28;20103;-51
2024/01/12 10:42:49;;;;;;;22.02;13.32;;;;;;;4.84;94.14;103224.53;5056586;28;20052;-52
2024/01/12 10:45:23;;;;;;;28.45;13.90;;;;;;;4.86;94.17;103225.13;5055146;28;20426;-50
2024/01/12 10:48:03;;;;;;;21.40;14.60;;;;;;;4.84;94.05;103227.28;5051646;28;20410;-52
2024/01/12 10:50:40;;;;;;;20.40;13.88;;;;;;;4.82;93.94;103223.94;5048444;28;20364;-51
2024/01/12 10:53:23;;;;;;;24.83;14.55;;;;;;;4.85;94.11;103227.03;5050256;28;20477;-51
2024/01/12 10:55:55;;;;;;;22.35;14.20;;;;;;;4.82;94.11;103222.03;5046743;28;20049;-48
2024/01/12 10:58:23;;;;;;;25.80;15.32;;;;;;;4.83;93.93;103218.22;5047725;28;20461;-50
2024/01/12 11:00:51;;;;;;;23.60;14.43;;;;;;;4.83;94.23;103220.13;5053447;28;20050;-53
2024/01/12 11:03:20;;;;;;;22.75;14.98;;;;;;;4.85;94.12;103217.97;5036406;28;20064;-47
2024/01/12 11:05:49;;;;;;;24.60;14.60;;;;;;;4.88;94.06;103212.81;5040700;28;20045;-51
2024/01/12 11:08:20;;;;;;;24.45;14.55;;;;;;;4.89;94.03;103213.66;5034778;28;20053;-50
2024/01/12 11:10:53;;;;;;;22.80;14.52;;;;;;;4.89;93.60;103208.16;5051481;28;20060;-49
2024/01/12 11:13:22;;;;;;;23.58;13.75;;;;;;;4.90;93.78;103193.34;5042320;28;20451;-50
2024/01/12 11:15:52;;;;;;;25.15;14.30;;;;;;;4.93;93.75;103203.84;5052706;28;20055;-51
2024/01/12 11:18:19;;;;;;;21.65;14.65;;;;;;;4.93;93.97;103203.84;5044450;28;20071;-47
2024/01/12 11:20:47;;;;;;;24.63;15.20;;;;;;;4.96;93.78;103192.34;5038562;28;20059;-50
2024/01/12 11:23:15;;;;;;;22.17;13.68;;;;;;;4.97;93.70;103194.03;5042306;28;20616;-50
2024/01/12 11:25:43;;;;;;;17.55;12.88;;;;;;;4.97;93.76;103191.28;5049147;28;20410;-53
2024/01/12 11:28:13;;;;;;;24.83;14.23;;;;;;;4.99;93.52;103186.38;5054278;28;20049;-52
2024/01/12 11:30:42;;;;;;;21.77;13.73;;;;;;;4.99;93.68;103180.06;5057236;28;20054;-47
2024/01/12 11:33:17;;;;;;;24.17;14.43;;;;;;;5.03;93.64;103182.03;5046806;28;20041;-49
2024/01/12 11:35:51;;;;;;;24.65;14.55;;;;;;;5.07;93.73;103185.97;5038128;28;20057;-49
2024/01/12 11:38:22;;;;;;;21.08;13.93;;;;;;;5.09;93.80;103170.06;5052636;28;20430;-52
2024/01/12 14:12:05;;;;;;;9.98;6.32;;;;;;;5.37;92.93;102974.97;4868818;28;20041;-49